Time;durP1;ratioP1;P1;durP2;ratioP2;P2;SDS_P1;SDS_P2;PMS_P1;PMS_P2;Temp;Humidity;BMP_temperature;BMP_pressure;BME280_temperature;BME280_humidity;BME280_pressure;Samples;Min_cycle;Max_cycle;Signal;HPM_P1;HPM_P2
2023/12/28 00:00:06;;;;;;;3.00;2.70;;;8.30;99.90;;;;;;5084915;28;20032;-46
2023/12/28 00:02:32;;;;;;;5.70;3.05;;;8.30;99.90;;;;;;5087987;28;20169;-47
2023/12/28 00:04:58;;;;;;;5.15;3.00;;;8.30;99.90;;;;;;5085864;28;20068;-46
2023/12/28 00:07:23;;;;;;;4.40;3.30;;;8.40;99.90;;;;;;5089337;28;20071;-46
2023/12/28 00:09:49;;;;;;;5.00;3.30;;;8.40;99.90;;;;;;5088951;28;20044;-49
2023/12/28 00:12:14;;;;;;;3.63;2.88;;;8.40;99.90;;;;;;5089307;28;20040;-45
2023/12/28 00:14:40;;;;;;;6.50;3.30;;;8.40;99.90;;;;;;5085899;28;20567;-47
2023/12/28 00:17:06;;;;;;;4.75;2.90;;;8.50;99.90;;;;;;5089708;28;20036;-46
2023/12/28 00:19:31;;;;;;;5.50;3.10;;;8.50;99.90;;;;;;5088152;28;20028;-46
2023/12/28 00:21:57;;;;;;;4.22;3.75;;;8.50;99.90;;;;;;5086239;28;20052;-46
2023/12/28 00:24:22;;;;;;;5.75;3.10;;;8.50;99.90;;;;;;5086035;28;20036;-48
2023/12/28 00:26:48;;;;;;;6.15;3.60;;;8.50;99.90;;;;;;5086627;28;20504;-49
2023/12/28 00:29:14;;;;;;;4.97;3.50;;;8.50;99.90;;;;;;5085080;28;20040;-46
2023/12/28 00:31:39;;;;;;;4.80;3.42;;;8.50;99.90;;;;;;5084106;28;20323;-46
2023/12/28 00:34:05;;;;;;;4.35;3.40;;;8.50;99.90;;;;;;5084350;28;20054;-46
2023/12/28 00:36:30;;;;;;;4.43;3.00;;;8.50;99.90;;;;;;5084740;28;20044;-46
2023/12/28 00:38:57;;;;;;;5.72;3.50;;;8.50;99.90;;;;;;5083755;28;20067;-45
2023/12/28 00:41:22;;;;;;;6.30;3.42;;;8.50;99.90;;;;;;5086798;28;20062;-46
2023/12/28 00:43:48;;;;;;;5.15;3.30;;;8.50;99.90;;;;;;5070692;28;20156;-45
2023/12/28 00:46:14;;;;;;;4.70;3.03;;;8.50;99.90;;;;;;5084607;28;20086;-45
2023/12/28 00:48:39;;;;;;;6.70;2.78;;;8.50;99.90;;;;;;5086711;28;20048;-46
2023/12/28 00:51:05;;;;;;;4.32;3.22;;;8.50;99.90;;;;;;5086182;28;20032;-47
2023/12/28 00:53:31;;;;;;;4.95;3.00;;;8.60;99.90;;;;;;5085471;28;20032;-49
2023/12/28 00:55:56;;;;;;;3.55;3.13;;;8.60;99.90;;;;;;5088015;28;20168;-46
2023/12/28 00:58:22;;;;;;;4.80;3.38;;;8.50;99.90;;;;;;5085785;28;20477;-46
2023/12/28 01:00:48;;;;;;;3.70;3.10;;;8.50;99.90;;;;;;5080960;28;20056;-47
2023/12/28 01:03:13;;;;;;;3.72;3.30;;;8.60;99.90;;;;;;5087334;28;20059;-46
2023/12/28 01:05:39;;;;;;;6.45;3.03;;;8.60;99.90;;;;;;5089622;28;20039;-46
2023/12/28 01:08:05;;;;;;;6.10;3.50;;;8.60;99.90;;;;;;5088888;28;20092;-47
2023/12/28 01:10:31;;;;;;;4.55;3.28;;;8.60;99.90;;;;;;5084683;28;20417;-47
2023/12/28 01:12:56;;;;;;;6.07;3.10;;;8.60;99.90;;;;;;5084753;28;20147;-46
2023/12/28 01:15:22;;;;;;;4.40;3.30;;;8.60;99.90;;;;;;5083320;28;20043;-46
2023/12/28 01:17:47;;;;;;;4.43;3.20;;;8.50;99.90;;;;;;5083419;28;20047;-46
2023/12/28 01:20:13;;;;;;;5.53;3.20;;;8.50;99.90;;;;;;5083696;28;20489;-46
2023/12/28 01:22:39;;;;;;;4.93;3.30;;;8.40;99.90;;;;;;5083267;28;20063;-46
2023/12/28 01:25:05;;;;;;;6.32;3.53;;;8.30;99.90;;;;;;5083338;28;20115;-46
2023/12/28 01:27:30;;;;;;;5.00;3.17;;;8.40;99.90;;;;;;5083398;28;20489;-47
2023/12/28 01:29:56;;;;;;;5.60;3.25;;;8.40;99.90;;;;;;5085277;28;20063;-48
2023/12/28 01:32:21;;;;;;;3.55;2.95;;;8.30;99.90;;;;;;5084483;28;20043;-46
2023/12/28 01:34:47;;;;;;;4.53;3.10;;;8.30;99.90;;;;;;5087465;28;20465;-46
2023/12/28 01:37:13;;;;;;;6.47;3.05;;;8.30;99.90;;;;;;5083822;28;20032;-49
2023/12/28 01:39:39;;;;;;;6.35;4.22;;;8.30;99.90;;;;;;5086371;28;20489;-47
2023/12/28 01:42:05;;;;;;;3.67;3.30;;;8.30;99.90;;;;;;5090761;28;20464;-48
2023/12/28 01:44:30;;;;;;;4.32;3.05;;;8.30;99.90;;;;;;5093903;28;20055;-47
2023/12/28 01:46:56;;;;;;;5.55;3.40;;;8.30;99.90;;;;;;5092844;28;20039;-47
2023/12/28 01:49:23;;;;;;;5.68;3.60;;;8.20;99.90;;;;;;5093304;28;20040;-47
2023/12/28 01:51:49;;;;;;;4.65;3.42;;;8.30;99.90;;;;;;5091402;28;20081;-46
2023/12/28 01:54:16;;;;;;;5.53;3.75;;;8.30;99.90;;;;;;5086396;28;20043;-46
2023/12/28 01:56:43;;;;;;;4.60;3.65;;;8.40;99.90;;;;;;5093420;28;20071;-47
2023/12/28 01:59:08;;;;;;;6.05;3.60;;;8.30;99.90;;;;;;5092904;28;20065;-46
2023/12/28 02:01:34;;;;;;;4.53;3.40;;;8.40;99.90;;;;;;5092791;28;20040;-47
2023/12/28 02:04:00;;;;;;;3.40;2.67;;;8.40;99.90;;;;;;5092913;28;20040;-45
2023/12/28 02:06:26;;;;;;;4.50;3.25;;;8.30;99.90;;;;;;5089855;28;20172;-46
2023/12/28 02:08:52;;;;;;;4.88;3.22;;;8.40;99.90;;;;;;5091085;28;20127;-45
2023/12/28 02:11:19;;;;;;;4.30;3.20;;;8.40;99.90;;;;;;5086547;28;20036;-46
2023/12/28 02:13:45;;;;;;;5.68;3.78;;;8.40;99.90;;;;;;5073586;28;20040;-46
2023/12/28 02:16:17;;;;;;;6.70;3.40;;;8.40;99.90;;;;;;5085333;28;20044;-45
2023/12/28 02:18:51;;;;;;;4.43;3.58;;;8.50;99.90;;;;;;5087023;28;20083;-47
2023/12/28 02:21:19;;;;;;;3.65;3.28;;;8.50;99.90;;;;;;5088777;28;20075;-45
2023/12/28 02:23:49;;;;;;;4.00;3.60;;;8.50;99.90;;;;;;5086496;28;20119;-46
2023/12/28 02:26:18;;;;;;;8.93;4.05;;;8.50;99.90;;;;;;5086106;28;20040;-46
2023/12/28 02:28:46;;;;;;;4.20;3.33;;;8.40;99.90;;;;;;5086569;28;20051;-45
2023/12/28 02:31:21;;;;;;;4.65;3.78;;;8.50;99.90;;;;;;5085436;28;20044;-46
2023/12/28 02:34:04;;;;;;;5.80;3.40;;;8.60;99.90;;;;;;5089498;28;20047;-47
2023/12/28 02:36:30;;;;;;;5.60;3.85;;;8.50;99.90;;;;;;5088161;28;20055;-49
2023/12/28 02:38:58;;;;;;;5.32;3.78;;;8.50;99.90;;;;;;5089268;28;20044;-49
2023/12/28 02:41:25;;;;;;;3.75;3.35;;;8.50;99.90;;;;;;5086198;28;20048;-46
2023/12/28 02:43:51;;;;;;;4.70;3.57;;;8.50;99.90;;;;;;5085443;28;20485;-45
2023/12/28 02:46:16;;;;;;;5.22;3.67;;;8.40;99.90;;;;;;5089620;28;20032;-47
2023/12/28 02:48:44;;;;;;;4.10;3.55;;;8.50;99.90;;;;;;5087086;28;20481;-47
2023/12/28 02:51:09;;;;;;;6.17;3.47;;;8.50;99.90;;;;;;5086854;28;20559;-46
2023/12/28 02:53:35;;;;;;;6.93;4.10;;;8.50;99.90;;;;;;5089709;28;20395;-47
2023/12/28 02:56:00;;;;;;;5.32;3.33;;;8.50;99.90;;;;;;5084501;28;20105;-46
2023/12/28 02:58:26;;;;;;;4.90;3.60;;;8.60;99.90;;;;;;5087079;28;20067;-46
2023/12/28 03:00:52;;;;;;;7.60;4.05;;;8.60;99.90;;;;;;5082833;28;20044;-45
2023/12/28 03:03:17;;;;;;;8.38;4.03;;;8.60;99.90;;;;;;5086111;28;20067;-45
2023/12/28 03:05:43;;;;;;;5.90;3.80;;;8.60;99.90;;;;;;5085196;28;20063;-46
2023/12/28 03:08:08;;;;;;;5.22;3.75;;;8.70;99.90;;;;;;5085866;28;20515;-46
2023/12/28 03:10:34;;;;;;;5.22;3.80;;;8.70;99.90;;;;;;5091402;28;20080;-46
2023/12/28 03:13:00;;;;;;;5.78;3.78;;;8.80;99.90;;;;;;5089704;28;20043;-48
2023/12/28 03:15:26;;;;;;;5.20;3.42;;;8.80;99.90;;;;;;5089275;28;20079;-47
2023/12/28 03:17:52;;;;;;;5.72;3.20;;;8.80;99.90;;;;;;5088654;28;20079;-46
2023/12/28 03:20:17;;;;;;;4.70;3.53;;;8.80;99.90;;;;;;5086829;28;20043;-46
2023/12/28 03:22:43;;;;;;;7.97;3.67;;;8.90;99.90;;;;;;5085461;28;20040;-46
2023/12/28 03:25:08;;;;;;;6.00;3.45;;;8.90;99.90;;;;;;5084275;28;20118;-47
2023/12/28 03:27:34;;;;;;;6.65;3.70;;;8.90;99.90;;;;;;5068218;28;20044;-46
2023/12/28 03:29:59;;;;;;;7.25;3.67;;;9.00;99.90;;;;;;5085868;28;20489;-47
2023/12/28 03:32:25;;;;;;;6.00;3.70;;;9.00;99.90;;;;;;5085042;28;20079;-46
2023/12/28 03:34:51;;;;;;;6.75;3.60;;;9.20;99.90;;;;;;5084556;28;20120;-46
2023/12/28 03:37:16;;;;;;;5.80;3.60;;;9.20;99.90;;;;;;5088344;28;20549;-48
2023/12/28 03:39:42;;;;;;;6.18;3.72;;;;;;;;;;5087475;28;20044;-46
2023/12/28 03:42:08;;;;;;;5.18;3.22;;;9.10;99.90;;;;;;5086617;28;20036;-46
2023/12/28 03:44:33;;;;;;;6.97;3.30;;;9.10;99.90;;;;;;5083551;28;20378;-46
2023/12/28 03:47:00;;;;;;;6.90;3.22;;;9.10;99.90;;;;;;5085847;28;20032;-46
2023/12/28 03:49:25;;;;;;;5.65;3.33;;;9.30;99.90;;;;;;5086990;28;20051;-47
2023/12/28 03:51:51;;;;;;;5.30;3.38;;;9.30;99.90;;;;;;5085092;28;20044;-46
2023/12/28 03:54:18;;;;;;;6.07;3.17;;;9.30;99.90;;;;;;5084743;28;20181;-47
2023/12/28 03:56:43;;;;;;;5.82;3.53;;;9.30;99.90;;;;;;5087784;28;20036;-46
2023/12/28 03:59:09;;;;;;;6.82;3.58;;;9.20;99.90;;;;;;5086640;28;20069;-45
2023/12/28 04:01:35;;;;;;;6.43;3.20;;;9.20;99.90;;;;;;5084564;28;20123;-46
2023/12/28 04:04:01;;;;;;;5.65;3.28;;;9.20;99.90;;;;;;5084335;28;20119;-46
2023/12/28 04:06:27;;;;;;;6.72;3.42;;;9.30;99.90;;;;;;5083365;28;20067;-46
2023/12/28 04:08:53;;;;;;;5.93;3.10;;;9.20;99.90;;;;;;5085169;28;20060;-47
2023/12/28 04:11:18;;;;;;;4.07;2.97;;;9.20;99.90;;;;;;5081922;28;20152;-47
2023/12/28 04:13:44;;;;;;;6.45;3.15;;;9.20;99.90;;;;;;5086520;28;20035;-46
2023/12/28 04:16:14;;;;;;;11.32;3.83;;;9.20;99.90;;;;;;5088788;28;20056;-48
2023/12/28 04:18:43;;;;;;;8.68;2.70;;;9.30;99.90;;;;;;5088723;28;20101;-46
2023/12/28 04:21:10;;;;;;;7.43;3.13;;;9.30;99.90;;;;;;5086312;28;20036;-46
2023/12/28 04:23:40;;;;;;;6.90;2.97;;;9.40;99.90;;;;;;5086309;28;20051;-47
2023/12/28 04:26:06;;;;;;;7.45;3.00;;;9.60;99.90;;;;;;5081572;28;20089;-47
2023/12/28 04:28:34;;;;;;;8.30;2.90;;;9.50;99.90;;;;;;5088487;28;20044;-46
2023/12/28 04:31:03;;;;;;;7.97;2.80;;;9.40;99.90;;;;;;5084469;28;20047;-47
2023/12/28 04:33:28;;;;;;;9.20;2.83;;;9.20;99.90;;;;;;5086419;28;20055;-46
2023/12/28 04:35:54;;;;;;;6.85;2.30;;;9.50;99.90;;;;;;5090761;28;20036;-46
2023/12/28 04:38:19;;;;;;;11.70;3.00;;;9.50;99.90;;;;;;5093434;28;20052;-46
2023/12/28 04:40:45;;;;;;;8.02;2.65;;;9.50;99.90;;;;;;5095519;28;20036;-49
2023/12/28 04:43:11;;;;;;;11.98;3.05;;;9.60;99.90;;;;;;5089865;28;20040;-49
2023/12/28 04:45:36;;;;;;;6.40;2.58;;;9.50;99.90;;;;;;5093351;28;20036;-45
2023/12/28 04:48:02;;;;;;;7.43;2.42;;;9.50;99.90;;;;;;5091570;28;20036;-46
2023/12/28 04:50:27;;;;;;;9.55;2.70;;;9.50;99.90;;;;;;5092800;28;20105;-48
2023/12/28 04:52:53;;;;;;;8.40;3.17;;;9.60;99.90;;;;;;5087661;28;20166;-46
2023/12/28 04:55:20;;;;;;;9.32;3.00;;;9.60;99.90;;;;;;5089912;28;20400;-50
2023/12/28 04:57:46;;;;;;;4.97;3.05;;;9.50;99.90;;;;;;5089530;28;20408;-46
2023/12/28 05:00:12;;;;;;;10.65;2.78;;;9.50;99.90;;;;;;5084839;28;20128;-49
2023/12/28 05:02:38;;;;;;;7.50;2.88;;;9.40;99.90;;;;;;5087931;28;20032;-46
2023/12/28 05:05:04;;;;;;;7.93;2.35;;;9.40;99.90;;;;;;5090401;28;20085;-46
2023/12/28 05:07:29;;;;;;;9.38;2.80;;;9.40;99.90;;;;;;5087978;28;20044;-46
2023/12/28 05:09:55;;;;;;;6.50;2.40;;;9.40;99.90;;;;;;5089736;28;20465;-45
2023/12/28 05:12:20;;;;;;;9.32;2.22;;;9.40;99.90;;;;;;5090663;28;20039;-46
2023/12/28 05:14:46;;;;;;;8.02;2.60;;;9.50;99.90;;;;;;5092345;28;20122;-45
2023/12/28 05:17:11;;;;;;;8.40;3.20;;;9.60;99.90;;;;;;5091932;28;20055;-46
2023/12/28 05:19:37;;;;;;;12.18;2.75;;;9.70;99.90;;;;;;5090050;28;20032;-47
2023/12/28 05:22:06;;;;;;;10.98;3.10;;;9.60;99.90;;;;;;5093652;28;20080;-46
2023/12/28 05:24:32;;;;;;;9.35;2.75;;;9.60;99.90;;;;;;5090834;28;20051;-46
2023/12/28 05:26:57;;;;;;;8.80;2.72;;;9.60;99.90;;;;;;5087751;28;20032;-47
2023/12/28 05:29:23;;;;;;;7.53;2.42;;;9.60;99.90;;;;;;5087210;28;20044;-46
2023/12/28 05:31:49;;;;;;;7.40;2.50;;;9.60;99.90;;;;;;5089102;28;20043;-46
2023/12/28 05:34:14;;;;;;;14.73;2.92;;;9.60;99.90;;;;;;5086557;28;20154;-47
2023/12/28 05:36:41;;;;;;;9.35;2.80;;;9.60;99.90;;;;;;5091737;28;20076;-47
2023/12/28 05:39:09;;;;;;;9.27;2.92;;;9.60;99.90;;;;;;5083618;28;20051;-46
2023/12/28 05:41:34;;;;;;;;;;;9.70;99.90;;;;;;5086224;28;20048;-46
2023/12/28 05:44:00;;;;;;;11.23;2.72;;;9.70;99.90;;;;;;5068857;28;21660;-48
2023/12/28 05:46:26;;;;;;;9.70;2.83;;;9.70;99.90;;;;;;5084186;28;20040;-45
2023/12/28 05:48:51;;;;;;;11.35;2.72;;;9.90;99.90;;;;;;5065927;28;20044;-46
2023/12/28 05:51:18;;;;;;;7.40;2.60;;;9.70;99.90;;;;;;5082159;28;20138;-47
2023/12/28 05:53:44;;;;;;;15.02;3.42;;;9.70;99.90;;;;;;5083255;28;20048;-46
2023/12/28 05:56:09;;;;;;;10.10;2.95;;;9.80;99.90;;;;;;5083659;28;20203;-47
2023/12/28 05:58:36;;;;;;;13.13;3.17;;;9.80;99.90;;;;;;5084473;28;20036;-45
2023/12/28 06:01:04;;;;;;;7.10;2.55;;;9.90;99.90;;;;;;5083332;28;20065;-46
2023/12/28 06:03:30;;;;;;;15.88;3.00;;;9.90;99.90;;;;;;5083012;28;20040;-47
2023/12/28 06:05:56;;;;;;;10.65;2.40;;;10.10;99.90;;;;;;5082756;28;20075;-47
2023/12/28 06:08:22;;;;;;;15.52;2.60;;;9.90;99.90;;;;;;5081984;28;20098;-47
2023/12/28 06:10:47;;;;;;;11.88;3.03;;;10.00;99.90;;;;;;5048941;28;20071;-47
2023/12/28 06:13:13;;;;;;;12.32;2.60;;;10.10;99.90;;;;;;5083174;28;20040;-47
2023/12/28 06:15:38;;;;;;;10.65;2.85;;;10.00;99.90;;;;;;5082815;28;20119;-46
2023/12/28 06:18:04;;;;;;;9.98;2.40;;;10.00;99.90;;;;;;5082524;28;20039;-46
2023/12/28 06:20:30;;;;;;;12.88;2.65;;;10.00;99.90;;;;;;5082144;28;20043;-46
2023/12/28 06:22:55;;;;;;;13.00;2.75;;;10.00;99.90;;;;;;5064602;28;20421;-46
2023/12/28 06:25:21;;;;;;;12.50;2.88;;;10.10;99.90;;;;;;5082905;28;20040;-47
2023/12/28 06:27:46;;;;;;;12.02;3.15;;;10.10;99.90;;;;;;5082848;28;20050;-47
2023/12/28 06:30:13;;;;;;;9.65;2.78;;;10.20;99.90;;;;;;5063470;28;20139;-46
2023/12/28 06:32:39;;;;;;;11.25;2.63;;;10.10;99.90;;;;;;5082013;28;20698;-46
2023/12/28 06:35:05;;;;;;;14.68;2.85;;;;;;;;;;5064698;28;20750;-47
2023/12/28 06:37:31;;;;;;;12.88;2.47;;;10.10;99.90;;;;;;5082734;28;20039;-46
2023/12/28 06:39:56;;;;;;;13.60;2.70;;;10.10;99.90;;;;;;5084528;28;20401;-46
2023/12/28 06:42:23;;;;;;;15.98;2.78;;;10.10;99.90;;;;;;5084012;28;20084;-46
2023/12/28 06:44:49;;;;;;;12.43;3.22;;;;;;;;;;5087989;28;20136;-46
2023/12/28 06:47:15;;;;;;;12.55;2.97;;;9.90;99.90;;;;;;5084515;28;20048;-49
2023/12/28 06:49:40;;;;;;;14.38;2.95;;;10.10;99.90;;;;;;5083457;28;20048;-47
2023/12/28 06:52:06;;;;;;;11.65;2.40;;;10.20;99.90;;;;;;5082642;28;20126;-47
2023/12/28 06:54:32;;;;;;;12.88;2.85;;;10.20;99.90;;;;;;5080934;28;20044;-48
2023/12/28 06:56:57;;;;;;;13.98;3.40;;;10.30;99.90;;;;;;5082383;28;20028;-46
2023/12/28 06:59:23;;;;;;;11.70;2.83;;;10.20;99.90;;;;;;5081520;28;20125;-46
2023/12/28 07:01:49;;;;;;;12.35;2.47;;;;;;;;;;5081473;28;20044;-46
2023/12/28 07:04:15;;;;;;;16.05;2.97;;;10.10;99.90;;;;;;5080728;28;20059;-47
2023/12/28 07:06:41;;;;;;;14.70;3.00;;;10.20;99.90;;;;;;5082351;28;20044;-46
2023/12/28 07:09:07;;;;;;;18.27;3.00;;;10.30;99.90;;;;;;5081636;28;20040;-47
2023/12/28 07:11:32;;;;;;;13.40;3.03;;;10.20;99.90;;;;;;5082558;28;20036;-46
2023/12/28 07:13:58;;;;;;;16.23;2.80;;;10.20;99.90;;;;;;5084938;28;20036;-46
2023/12/28 07:16:24;;;;;;;17.48;3.15;;;10.20;99.90;;;;;;5085289;28;20051;-46
2023/12/28 07:18:49;;;;;;;9.63;2.40;;;10.20;99.90;;;;;;5081667;28;20059;-46
2023/12/28 07:21:15;;;;;;;15.75;3.70;;;10.20;99.90;;;;;;5080976;28;20047;-48
2023/12/28 07:23:40;;;;;;;15.88;3.00;;;10.30;99.90;;;;;;5080861;28;20386;-46
2023/12/28 07:26:06;;;;;;;7.97;2.60;;;10.30;99.90;;;;;;5081751;28;20127;-46
2023/12/28 07:28:32;;;;;;;8.70;2.30;;;10.20;99.90;;;;;;5081126;28;20043;-46
2023/12/28 07:30:57;;;;;;;13.85;2.75;;;10.20;99.90;;;;;;5082741;28;20470;-45
2023/12/28 07:33:23;;;;;;;14.73;2.80;;;10.20;99.90;;;;;;5080460;28;20036;-46
2023/12/28 07:35:48;;;;;;;10.75;2.50;;;10.20;99.90;;;;;;5081261;28;20457;-45
2023/12/28 07:38:15;;;;;;;12.27;3.10;;;10.30;99.90;;;;;;5081452;28;20035;-46
2023/12/28 07:40:40;;;;;;;12.75;2.88;;;10.20;99.90;;;;;;5081094;28;20048;-46
2023/12/28 07:43:06;;;;;;;19.48;3.30;;;10.20;99.90;;;;;;5080928;28;20047;-46
2023/12/28 07:45:32;;;;;;;13.93;3.20;;;10.20;99.90;;;;;;5084874;28;20067;-46
2023/12/28 07:48:00;;;;;;;15.90;3.42;;;10.30;99.90;;;;;;5084822;28;20469;-45
2023/12/28 07:50:26;;;;;;;13.43;2.80;;;10.30;99.90;;;;;;5062824;28;20048;-47
2023/12/28 07:52:51;;;;;;;12.95;3.03;;;10.20;99.90;;;;;;5080393;28;20048;-49
2023/12/28 07:55:17;;;;;;;14.45;3.50;;;10.20;99.90;;;;;;5080484;28;20043;-46
2023/12/28 07:57:43;;;;;;;18.05;3.05;;;10.30;99.90;;;;;;5080134;28;20097;-47
2023/12/28 08:00:09;;;;;;;10.30;3.03;;;10.30;99.90;;;;;;5080750;28;20032;-45
2023/12/28 08:02:35;;;;;;;14.23;2.95;;;10.20;99.90;;;;;;5080673;28;20050;-46
2023/12/28 08:05:00;;;;;;;14.88;3.25;;;10.30;99.90;;;;;;5080473;28;20116;-46
2023/12/28 08:07:26;;;;;;;13.80;2.90;;;10.30;99.90;;;;;;5080844;28;20417;-48
2023/12/28 08:09:51;;;;;;;12.02;3.20;;;10.40;99.90;;;;;;5078284;28;20085;-46
2023/12/28 08:12:18;;;;;;;19.20;3.63;;;10.30;99.90;;;;;;5079391;28;20113;-46
2023/12/28 08:14:43;;;;;;;21.42;3.70;;;10.30;99.90;;;;;;5081076;28;20047;-46
2023/12/28 08:17:09;;;;;;;20.35;3.30;;;10.40;99.90;;;;;;5080884;28;20087;-45
2023/12/28 08:19:35;;;;;;;15.80;3.45;;;10.40;99.90;;;;;;5079903;28;20489;-46
2023/12/28 08:22:02;;;;;;;13.05;3.22;;;10.40;99.90;;;;;;5081899;28;20122;-48
2023/12/28 08:24:28;;;;;;;17.25;3.88;;;10.40;99.90;;;;;;5080135;28;20459;-48
2023/12/28 08:26:54;;;;;;;17.85;3.50;;;10.40;99.90;;;;;;5081319;28;20032;-48
2023/12/28 08:29:19;;;;;;;18.45;3.58;;;10.50;99.90;;;;;;5082234;28;20048;-47
2023/12/28 08:31:45;;;;;;;15.85;3.20;;;10.40;99.90;;;;;;5080362;28;20477;-47
2023/12/28 08:34:10;;;;;;;21.05;3.67;;;10.50;99.90;;;;;;5079715;28;20036;-46
2023/12/28 08:36:36;;;;;;;13.25;3.10;;;10.50;99.90;;;;;;5081483;28;20039;-47
2023/12/28 08:39:02;;;;;;;19.77;3.40;;;10.50;99.90;;;;;;5079281;28;20493;-46
2023/12/28 08:41:28;;;;;;;19.85;3.42;;;10.50;99.90;;;;;;5081678;28;20094;-47
2023/12/28 08:43:54;;;;;;;16.92;3.25;;;;;;;;;;5079167;28;20052;-47
2023/12/28 08:46:21;;;;;;;19.08;3.78;;;10.80;99.90;;;;;;5080517;28;20048;-47
2023/12/28 08:48:47;;;;;;;17.55;3.35;;;10.40;99.90;;;;;;5085035;28;20044;-47
2023/12/28 08:51:14;;;;;;;17.15;3.58;;;10.60;99.90;;;;;;5084361;28;20175;-46
2023/12/28 08:53:40;;;;;;;16.35;3.80;;;;;;;;;;5086938;28;20071;-50
2023/12/28 08:56:17;;;;;;;20.75;3.88;;;10.70;99.90;;;;;;5084925;28;20119;-46
2023/12/28 08:58:47;;;;;;;16.67;3.50;;;10.70;99.90;;;;;;5083948;28;20054;-47
2023/12/28 09:01:21;;;;;;;19.40;3.67;;;10.60;99.90;;;;;;5088078;28;21739;-47
2023/12/28 09:03:51;;;;;;;20.05;3.95;;;10.70;99.90;;;;;;5087723;28;20636;-48
2023/12/28 09:06:18;;;;;;;20.13;3.30;;;10.70;99.90;;;;;;5085174;28;20035;-46
2023/12/28 09:08:44;;;;;;;24.40;3.95;;;10.70;99.90;;;;;;5087237;28;20370;-48
2023/12/28 09:11:13;;;;;;;16.83;3.40;;;10.70;99.90;;;;;;5080766;28;20052;-46
2023/12/28 09:13:40;;;;;;;17.85;4.00;;;;;;;;;;5088108;28;20501;-46
2023/12/28 09:16:06;;;;;;;17.85;3.88;;;;;;;;;;5084403;28;20045;-46
2023/12/28 09:18:32;;;;;;;19.98;3.53;;;;;;;;;;5084211;28;20358;-46
2023/12/28 09:20:58;;;;;;;17.70;3.65;;;;;;;;;;5084191;28;20105;-46
2023/12/28 09:23:24;;;;;;;14.98;3.47;;;;;;;;;;5090129;28;20113;-45
2023/12/28 09:25:50;;;;;;;18.58;3.80;;;10.80;99.90;;;;;;5093326;28;20375;-45
2023/12/28 09:28:15;;;;;;;17.55;3.20;;;10.70;99.90;;;;;;5094046;28;20058;-45
2023/12/28 09:30:41;;;;;;;16.10;3.65;;;10.70;99.90;;;;;;5092927;28;20381;-46
2023/12/28 09:33:07;;;;;;;18.55;3.40;;;10.80;99.90;;;;;;5095014;28;20044;-48
2023/12/28 09:35:33;;;;;;;16.15;4.07;;;10.80;99.90;;;;;;5094653;28;20036;-45
2023/12/28 09:37:58;;;;;;;17.23;3.42;;;10.80;99.90;;;;;;5094944;28;20105;-46
2023/12/28 09:40:25;;;;;;;19.55;3.75;;;10.80;99.90;;;;;;5094119;28;20052;-46
2023/12/28 09:43:00;;;;;;;18.15;3.38;;;10.80;99.90;;;;;;5092018;28;20481;-47
2023/12/28 09:45:26;;;;;;;16.77;3.53;;;10.80;99.90;;;;;;5094757;28;20119;-45
2023/12/28 09:47:52;;;;;;;21.25;3.78;;;10.80;99.90;;;;;;5094360;28;20118;-45
2023/12/28 09:50:19;;;;;;;16.48;3.10;;;10.70;99.90;;;;;;5093078;28;20036;-48
2023/12/28 09:52:45;;;;;;;17.45;3.85;;;10.70;99.90;;;;;;5089850;28;20040;-48
2023/12/28 09:55:11;;;;;;;16.48;3.25;;;10.70;99.90;;;;;;5090358;28;20048;-46
2023/12/28 09:57:37;;;;;;;19.27;3.80;;;10.70;99.90;;;;;;5094296;28;20051;-47
2023/12/28 10:00:03;;;;;;;19.15;3.63;;;10.70;99.90;;;;;;5085503;28;20090;-45
2023/12/28 10:02:31;;;;;;;16.70;3.55;;;10.60;99.90;;;;;;5079608;28;20052;-44
2023/12/28 10:04:57;;;;;;;15.80;3.08;;;10.60;99.90;;;;;;5093851;28;20046;-46
2023/12/28 10:07:24;;;;;;;16.98;3.42;;;10.60;99.90;;;;;;5091250;28;20135;-45
2023/12/28 10:09:49;;;;;;;16.40;3.88;;;10.60;99.90;;;;;;5091249;28;20487;-47
2023/12/28 10:12:15;;;;;;;21.25;3.85;;;10.50;99.90;;;;;;5090008;28;20109;-45
2023/12/28 10:14:41;;;;;;;16.52;3.50;;;10.50;99.90;;;;;;5093671;28;20036;-46
2023/12/28 10:17:07;;;;;;;14.65;3.33;;;10.50;99.90;;;;;;5092461;28;20520;-46
2023/12/28 10:19:32;;;;;;;18.63;3.92;;;10.50;99.90;;;;;;5093291;28;20123;-46
2023/12/28 10:21:59;;;;;;;17.05;3.10;;;10.50;99.90;;;;;;5090005;28;20064;-46
2023/12/28 10:24:25;;;;;;;20.27;3.75;;;10.50;99.90;;;;;;5092201;28;20501;-46
2023/12/28 10:26:52;;;;;;;15.95;3.70;;;10.50;99.90;;;;;;5086874;28;20050;-45
2023/12/28 10:29:18;;;;;;;18.93;3.40;;;10.50;99.90;;;;;;5092081;28;20028;-46
2023/12/28 10:31:43;;;;;;;16.75;3.70;;;10.50;99.90;;;;;;5091978;28;20042;-46
2023/12/28 10:34:09;;;;;;;18.67;3.40;;;10.50;99.90;;;;;;5093018;28;20067;-46
2023/12/28 10:36:36;;;;;;;21.40;3.85;;;10.60;99.90;;;;;;5093008;28;20054;-45
2023/12/28 10:39:05;;;;;;;16.80;3.60;;;10.60;99.90;;;;;;5092461;28;20052;-46
2023/12/28 10:41:32;;;;;;;18.83;3.80;;;10.60;99.90;;;;;;5091155;28;20490;-46
2023/12/28 10:44:05;;;;;;;20.77;3.88;;;10.60;99.90;;;;;;5092482;28;20032;-45
2023/12/28 10:46:32;;;;;;;16.40;3.42;;;10.60;99.90;;;;;;5091378;28;20036;-46
2023/12/28 10:49:23;;;;;;;20.50;3.70;;;10.70;99.90;;;;;;5091266;28;20036;-45
2023/12/28 10:51:52;;;;;;;16.55;3.22;;;10.70;99.90;;;;;;5080027;28;20052;-45
2023/12/28 10:54:44;;;;;;;13.23;3.50;;;10.80;99.90;;;;;;5083680;28;20066;-47
2023/12/28 10:57:23;;;;;;;14.57;2.92;;;10.80;99.90;;;;;;5091998;28;20102;-46
2023/12/28 10:59:56;;;;;;;19.10;3.50;;;10.70;99.90;;;;;;5091994;28;20438;-46
2023/12/28 11:02:26;;;;;;;23.42;3.75;;;10.70;99.90;;;;;;5091831;28;20071;-45
2023/12/28 11:04:53;;;;;;;17.98;3.50;;;10.80;99.90;;;;;;5088433;28;20576;-46
2023/12/28 11:07:20;;;;;;;15.50;3.17;;;10.80;99.90;;;;;;5088191;28;20033;-45
2023/12/28 11:09:46;;;;;;;18.27;3.67;;;10.80;99.90;;;;;;5092118;28;20399;-45
2023/12/28 11:12:12;;;;;;;19.27;3.78;;;10.90;99.90;;;;;;5090238;28;20506;-46
2023/12/28 11:14:40;;;;;;;14.65;3.13;;;10.90;99.90;;;;;;5088639;28;20047;-45
2023/12/28 11:17:06;;;;;;;20.15;4.07;;;10.80;99.90;;;;;;5090373;28;20409;-46
2023/12/28 11:19:33;;;;;;;17.50;3.47;;;10.90;99.90;;;;;;5091721;28;20047;-45
2023/12/28 11:22:01;;;;;;;15.77;3.08;;;10.90;99.90;;;;;;5091589;28;20086;-46
2023/12/28 11:24:29;;;;;;;25.13;4.13;;;10.90;99.90;;;;;;5091417;28;20485;-45
2023/12/28 11:26:55;;;;;;;18.42;4.10;;;10.80;99.90;;;;;;5091313;28;20040;-46
2023/12/28 11:29:22;;;;;;;15.07;2.92;;;10.80;99.90;;;;;;5072446;28;20044;-47
2023/12/28 11:31:54;;;;;;;17.48;3.42;;;10.80;99.90;;;;;;5089944;28;20036;-46
2023/12/28 11:34:30;;;;;;;19.60;3.70;;;10.80;99.90;;;;;;5090998;28;20063;-47
2023/12/28 11:36:57;;;;;;;18.27;4.10;;;10.80;99.90;;;;;;5092199;28;20039;-45
2023/12/28 11:39:34;;;;;;;15.57;3.28;;;10.80;99.90;;;;;;5074042;28;20107;-46
2023/12/28 11:42:04;;;;;;;13.48;3.22;;;10.70;99.90;;;;;;5089412;28;20051;-46
2023/12/28 11:44:51;;;;;;;17.48;3.15;;;10.70;99.90;;;;;;5089604;28;20044;-48
2023/12/28 11:47:22;;;;;;;21.77;3.92;;;10.70;99.90;;;;;;5078772;28;20398;-45
2023/12/28 11:49:51;;;;;;;14.90;3.40;;;10.70;99.90;;;;;;5090675;28;20055;-45
2023/12/28 11:52:26;;;;;;;17.83;3.50;;;10.70;99.90;;;;;;5091274;28;20039;-45
2023/12/28 11:54:52;;;;;;;13.73;2.88;;;10.70;99.90;;;;;;5087174;28;20040;-45
2023/12/28 11:57:18;;;;;;;16.35;3.08;;;10.70;99.90;;;;;;5095130;28;20397;-47
2023/12/28 11:59:44;;;;;;;17.98;3.38;;;10.80;99.90;;;;;;5090873;28;20032;-45
2023/12/28 12:02:11;;;;;;;16.30;3.63;;;10.80;99.90;;;;;;5091602;28;20031;-45
2023/12/28 12:04:36;;;;;;;17.70;3.22;;;10.80;99.90;;;;;;5072744;28;20036;-46
2023/12/28 12:07:03;;;;;;;17.42;3.28;;;10.80;99.90;;;;;;5091207;28;20043;-46
2023/12/28 12:09:34;;;;;;;17.70;3.53;;;10.80;99.90;;;;;;5090613;28;20128;-46
2023/12/28 12:12:02;;;;;;;18.48;3.78;;;10.80;99.90;;;;;;5089352;28;20097;-46
2023/12/28 12:14:29;;;;;;;14.10;3.08;;;10.80;99.90;;;;;;5073308;28;20524;-46
2023/12/28 12:16:56;;;;;;;21.23;3.47;;;10.80;99.90;;;;;;5091244;28;20059;-46
2023/12/28 12:19:23;;;;;;;14.80;3.20;;;10.90;99.90;;;;;;5090758;28;20370;-49
2023/12/28 12:21:49;;;;;;;16.70;3.73;;;10.90;99.90;;;;;;5086506;28;20501;-46
2023/12/28 12:24:18;;;;;;;15.48;3.00;;;10.90;99.90;;;;;;5090756;28;20143;-45
2023/12/28 12:26:43;;;;;;;18.05;3.45;;;10.90;99.90;;;;;;5090354;28;20044;-46
2023/12/28 12:29:09;;;;;;;17.42;3.55;;;10.80;99.90;;;;;;5091254;28;20044;-45
2023/12/28 12:31:37;;;;;;;20.05;3.63;;;10.80;99.90;;;;;;5085389;28;20073;-45
2023/12/28 12:34:03;;;;;;;18.23;3.75;;;10.80;99.90;;;;;;5089209;28;20040;-46
2023/12/28 12:36:28;;;;;;;21.95;3.78;;;10.90;99.90;;;;;;5089621;28;20448;-45
2023/12/28 12:38:54;;;;;;;16.63;3.75;;;10.90;99.90;;;;;;5051611;28;20103;-45
2023/12/28 12:41:20;;;;;;;19.40;3.72;;;10.90;99.90;;;;;;5072263;28;20036;-46
2023/12/28 12:43:46;;;;;;;18.35;3.55;;;10.90;99.90;;;;;;5072381;28;20096;-45
2023/12/28 12:46:12;;;;;;;20.92;3.92;;;10.90;99.90;;;;;;5071924;28;20051;-47